Time;durP1;ratioP1;P1;durP2;ratioP2;P2;SDS_P1;SDS_P2;PMS_P1;PMS_P2;Temp;Humidity;BMP_temperature;BMP_pressure;BME280_temperature;BME280_humidity;BME280_pressure;Samples;Min_cycle;Max_cycle;Signal;HPM_P1;HPM_P2
2022/05/28 00:00:51;;;;;;;;;;;10.50;99.90;;;;;;5053208;28;19953;-79
2022/05/28 00:03:18;;;;;;;;;;;10.40;99.90;;;;;;5052879;28;19920;-78
2022/05/28 00:05:44;;;;;;;;;;;10.40;99.90;;;;;;5052787;28;19962;-77
2022/05/28 00:08:10;;;;;;;;;;;10.30;99.90;;;;;;5054843;28;19944;-78
2022/05/28 00:10:36;;;;;;;;;;;10.30;99.90;;;;;;5052153;28;19951;-79
2022/05/28 00:13:03;;;;;;;;;;;10.30;99.90;;;;;;5050317;28;20441;-78
2022/05/28 00:15:28;;;;;;;;;;;10.30;99.90;;;;;;5052679;28;20506;-77
2022/05/28 00:17:54;;;;;;;;;;;10.20;99.90;;;;;;5053428;28;19917;-78
2022/05/28 00:20:20;;;;;;;;;;;10.20;99.90;;;;;;5044104;28;19917;-78
2022/05/28 00:22:45;;;;;;;;;;;10.20;99.90;;;;;;5046305;28;19932;-78
2022/05/28 00:25:12;;;;;;;;;;;10.20;99.90;;;;;;5053690;28;19927;-79
2022/05/28 00:27:38;;;;;;;;;;;10.30;99.90;;;;;;5053006;28;20016;-80
2022/05/28 00:30:05;;;;;;;;;;;10.30;99.90;;;;;;5052288;28;20012;-79
2022/05/28 00:32:31;;;;;;;;;;;10.30;99.90;;;;;;5033364;28;19923;-77
2022/05/28 00:34:56;;;;;;;;;;;10.30;99.90;;;;;;5054797;28;19913;-80
2022/05/28 00:37:22;;;;;;;;;;;10.40;99.90;;;;;;5057402;28;19909;-80
2022/05/28 00:39:47;;;;;;;;;;;10.40;99.90;;;;;;5055445;28;19912;-81
2022/05/28 00:42:13;;;;;;;;;;;10.50;99.90;;;;;;5046701;28;19917;-81
2022/05/28 00:44:39;;;;;;;;;;;10.50;99.90;;;;;;5055786;28;19996;-79
2022/05/28 00:47:04;;;;;;;;;;;10.50;99.90;;;;;;5056465;28;19948;-79
2022/05/28 00:49:30;;;;;;;;;;;10.50;99.90;;;;;;5058233;28;19940;-79
2022/05/28 00:52:00;;;;;;;;;;;10.40;99.90;;;;;;5044860;28;20296;-79
2022/05/28 00:54:33;;;;;;;;;;;10.50;99.90;;;;;;5051429;28;20015;-78
2022/05/28 00:56:59;;;;;;;;;;;10.50;99.90;;;;;;5042338;28;19913;-79
2022/05/28 00:59:24;;;;;;;;;;;10.50;99.90;;;;;;5049484;28;19928;-81
2022/05/28 01:01:55;;;;;;;;;;;10.50;99.90;;;;;;5046110;28;19924;-80
2022/05/28 01:04:42;;;;;;;;;;;10.50;99.90;;;;;;5044396;28;19917;-79
2022/05/28 01:07:12;;;;;;;;;;;10.60;99.90;;;;;;5044125;28;19960;-81
2022/05/28 01:09:44;;;;;;;;;;;10.60;99.90;;;;;;5046022;28;19920;-79
2022/05/28 01:12:14;;;;;;;;;;;10.70;99.90;;;;;;5054488;28;20204;-79
2022/05/28 01:14:46;;;;;;;;;;;10.70;99.90;;;;;;5046002;28;20011;-79
2022/05/28 01:17:15;;;;;;;;;;;10.60;99.90;;;;;;5045142;28;19920;-80
2022/05/28 01:19:46;;;;;;;;;;;10.50;99.90;;;;;;5053720;28;19917;-80
2022/05/28 01:22:12;;;;;;;;;;;10.40;99.90;;;;;;5053514;28;19912;-79
2022/05/28 01:24:49;;;;;;;;;;;10.30;99.90;;;;;;5044994;28;19920;-79
2022/05/28 01:27:35;;;;;;;;;;;10.30;99.90;;;;;;5048735;28;19917;-79
2022/05/28 01:30:04;;;;;;;;;;;10.20;99.90;;;;;;5060958;28;19952;-79
2022/05/28 01:32:31;;;;;;;;;;;10.20;99.90;;;;;;5052154;28;19935;-82
2022/05/28 01:34:58;;;;;;;;;;;10.10;99.90;;;;;;5056440;28;20017;-80
2022/05/28 01:37:24;;;;;;;;;;;10.00;99.90;;;;;;5053120;28;19917;-80
2022/05/28 01:39:50;;;;;;;;;;;10.00;99.90;;;;;;5053095;28;19991;-82
2022/05/28 01:42:17;;;;;;;;;;;9.90;99.90;;;;;;5053400;28;20210;-82
2022/05/28 01:44:44;;;;;;;;;;;10.20;99.90;;;;;;5053012;28;19963;-84
2022/05/28 01:47:10;;;;;;;;;;;10.20;99.90;;;;;;5054215;28;19959;-79
2022/05/28 01:49:36;;;;;;;;;;;10.20;99.90;;;;;;5058169;28;19917;-82
2022/05/28 01:52:02;;;;;;;;;;;10.20;99.90;;;;;;5055949;28;19917;-80
2022/05/28 01:54:32;;;;;;;;;;;10.30;99.90;;;;;;5054521;28;19920;-82
2022/05/28 01:56:57;;;;;;;;;;;10.40;99.90;;;;;;5053724;28;19913;-81
2022/05/28 01:59:25;;;;;;;;;;;10.50;99.90;;;;;;5051568;28;19966;-79
2022/05/28 02:01:51;;;;;;;;;;;10.50;99.90;;;;;;5053520;28;19935;-84
2022/05/28 02:04:17;;;;;;;;;;;10.40;99.90;;;;;;5050203;28;19913;-81
2022/05/28 02:06:43;;;;;;;;;;;10.40;99.90;;;;;;5052263;28;20358;-79
2022/05/28 02:09:14;;;;;;;;;;;10.50;99.90;;;;;;5053607;28;19913;-76
2022/05/28 02:11:43;;;;;;;;;;;10.60;99.90;;;;;;5054154;28;19919;-80
2022/05/28 02:14:14;;;;;;;;;;;10.70;99.90;;;;;;5050944;28;20296;-79
2022/05/28 02:16:57;;;;;;;;;;;10.90;99.90;;;;;;5050819;28;20224;-77
2022/05/28 02:19:29;;;;;;;;;;;11.00;99.90;;;;;;5051981;28;19935;-76
2022/05/28 02:22:03;;;;;;;;;;;11.10;99.90;;;;;;5054185;28;19932;-75
2022/05/28 02:24:33;;;;;;;;;;;11.20;99.90;;;;;;5050353;28;19963;-76
2022/05/28 02:27:01;;;;;;;;;;;11.10;99.90;;;;;;5047940;28;20200;-77
2022/05/28 02:29:27;;;;;;;;;;;11.00;99.90;;;;;;5051885;28;19913;-79
2022/05/28 02:31:53;;;;;;;;;;;10.90;99.90;;;;;;5069777;28;19912;-77
2022/05/28 02:34:19;;;;;;;;;;;10.80;99.90;;;;;;5052714;28;19920;-77
2022/05/28 02:36:45;;;;;;;;;;;10.80;99.90;;;;;;5053565;28;20319;-77
2022/05/28 02:39:10;;;;;;;;;;;10.80;99.90;;;;;;5053394;28;19996;-76
2022/05/28 02:41:36;;;;;;;;;;;10.90;99.90;;;;;;5054119;28;20411;-76
2022/05/28 02:44:02;;;;;;;;;;;10.90;99.90;;;;;;5053152;28;20215;-78
2022/05/28 02:46:28;;;;;;;;;;;10.80;99.90;;;;;;5053190;28;19917;-77
2022/05/28 02:48:54;;;;;;;;;;;10.80;99.90;;;;;;5053712;28;19917;-76
2022/05/28 02:51:21;;;;;;;;;;;10.90;99.90;;;;;;5053464;28;20031;-75
2022/05/28 02:53:48;;;;;;;;;;;10.90;99.90;;;;;;5053333;28;19913;-76
2022/05/28 02:56:13;;;;;;;;;;;10.80;99.90;;;;;;5053914;28;19974;-76
2022/05/28 02:58:39;;;;;;;;;;;10.70;99.90;;;;;;5050603;28;20266;-78
2022/05/28 03:01:16;;;;;;;;;;;10.70;99.90;;;;;;5053320;28;20241;-76
2022/05/28 03:03:43;;;;;;;;;;;10.60;99.90;;;;;;5050078;28;19956;-76
2022/05/28 03:06:08;;;;;;;;;;;10.70;99.90;;;;;;5045983;28;20331;-76
2022/05/28 03:08:34;;;;;;;;;;;10.60;99.90;;;;;;5051573;28;19917;-76
2022/05/28 03:10:59;;;;;;;;;;;10.60;99.90;;;;;;5046650;28;19962;-75
2022/05/28 03:13:25;;;;;;;;;;;10.40;99.90;;;;;;5051020;28;20315;-76
2022/05/28 03:15:51;;;;;;;;;;;10.40;99.90;;;;;;5051968;28;19912;-76
2022/05/28 03:18:16;;;;;;;;;;;10.40;99.90;;;;;;5045606;28;19913;-76
2022/05/28 03:20:42;;;;;;;;;;;10.40;99.90;;;;;;5052920;28;19955;-79
2022/05/28 03:23:07;;;;;;;;;;;10.40;99.90;;;;;;5053740;28;20300;-76
2022/05/28 03:25:33;;;;;;;;;;;10.40;99.90;;;;;;5053610;28;19924;-76
2022/05/28 03:27:58;;;;;;;;;;;10.60;99.90;;;;;;5053197;28;20342;-78
2022/05/28 03:30:24;;;;;;;;;;;10.60;99.90;;;;;;5051359;28;19917;-78
2022/05/28 03:32:50;;;;;;;;;;;10.60;99.90;;;;;;5056142;28;20232;-74
2022/05/28 03:35:15;;;;;;;;;;;10.60;99.90;;;;;;5054577;28;20296;-76
2022/05/28 03:37:41;;;;;;;;;;;10.50;99.90;;;;;;5055985;28;20374;-79
2022/05/28 03:40:07;;;;;;;;;;;10.40;99.90;;;;;;5056012;28;20226;-77
2022/05/28 03:42:32;;;;;;;;;;;10.40;99.90;;;;;;5056194;28;19909;-78
2022/05/28 03:44:58;;;;;;;;;;;10.30;99.90;;;;;;5054334;28;20300;-75
2022/05/28 03:47:24;;;;;;;;;;;10.20;99.90;;;;;;5057167;28;20011;-76
2022/05/28 03:49:49;;;;;;;;;;;10.20;99.90;;;;;;5049344;28;19924;-76
2022/05/28 03:52:15;;;;;;;;;;;10.30;99.90;;;;;;5056347;28;19923;-75
2022/05/28 03:54:43;;;;;;;;;;;10.30;99.90;;;;;;5051649;28;20170;-76
2022/05/28 03:57:12;;;;;;;;;;;10.30;99.90;;;;;;5056411;28;19955;-76
2022/05/28 03:59:38;;;;;;;;;;;10.30;99.90;;;;;;5056381;28;19913;-75
2022/05/28 04:02:03;;;;;;;;;;;10.20;99.90;;;;;;5046195;28;20268;-74
2022/05/28 04:04:30;;;;;;;;;;;10.20;99.90;;;;;;5045352;28;19960;-75
2022/05/28 04:06:58;;;;;;;;;;;10.20;99.90;;;;;;5047003;28;19948;-75
2022/05/28 04:09:23;;;;;;;;;;;10.30;99.90;;;;;;5047737;28;19921;-77
2022/05/28 04:11:49;;;;;;;;;;;10.20;99.90;;;;;;5047121;28;20008;-79
2022/05/28 04:14:15;;;;;;;;;;;10.20;99.90;;;;;;5030497;28;19954;-76
2022/05/28 04:16:41;;;;;;;;;;;10.20;99.90;;;;;;5046976;28;19913;-77
2022/05/28 04:19:09;;;;;;;;;;;10.20;99.90;;;;;;5043418;28;19913;-79
2022/05/28 04:21:36;;;;;;;;;;;10.10;99.90;;;;;;5046371;28;19962;-79
2022/05/28 04:24:02;;;;;;;;;;;10.10;99.90;;;;;;5044628;28;19955;-78
2022/05/28 04:26:27;;;;;;;;;;;10.10;99.90;;;;;;5047665;28;19948;-75
2022/05/28 04:28:53;;;;;;;;;;;10.10;99.90;;;;;;5047894;28;19978;-77
2022/05/28 04:31:18;;;;;;;;;;;10.10;99.90;;;;;;5046338;28;20015;-77
2022/05/28 04:33:44;;;;;;;;;;;10.20;99.90;;;;;;5048239;28;19925;-77
2022/05/28 04:36:10;;;;;;;;;;;10.30;99.90;;;;;;5048300;28;19927;-75
2022/05/28 04:38:35;;;;;;;;;;;10.40;99.90;;;;;;5050796;28;19912;-75
2022/05/28 04:41:01;;;;;;;;;;;10.50;99.90;;;;;;5047547;28;19920;-76
2022/05/28 04:43:27;;;;;;;;;;;10.50;99.90;;;;;;5050588;28;20347;-75
2022/05/28 04:45:52;;;;;;;;;;;10.60;99.90;;;;;;5047169;28;20331;-76
2022/05/28 04:48:18;;;;;;;;;;;10.80;99.90;;;;;;5028253;28;19917;-76
2022/05/28 04:50:44;;;;;;;;;;;10.90;99.90;;;;;;5049623;28;19921;-76
2022/05/28 04:53:09;;;;;;;;;;;11.10;99.90;;;;;;5048025;28;19917;-76
2022/05/28 04:55:36;;;;;;;;;;;11.20;99.90;;;;;;5049345;28;19928;-75
2022/05/28 04:58:02;;;;;;;;;;;11.20;99.90;;;;;;5046983;28;19920;-78
2022/05/28 05:00:27;;;;;;;;;;;11.10;99.90;;;;;;5054462;28;20259;-78
2022/05/28 05:02:53;;;;;;;;;;;11.10;99.90;;;;;;5055546;28;20287;-76
2022/05/28 05:05:18;;;;;;;;;;;11.10;99.90;;;;;;5055078;28;20022;-76
2022/05/28 05:07:44;;;;;;;;;;;11.10;99.90;;;;;;5055298;28;19913;-77
2022/05/28 05:10:10;;;;;;;;;;;11.10;99.90;;;;;;5053865;28;20263;-75
2022/05/28 05:12:35;;;;;;;;;;;11.20;99.90;;;;;;5055157;28;20201;-79
2022/05/28 05:15:01;;;;;;;;;;;11.20;99.90;;;;;;5056287;28;20000;-78
2022/05/28 05:17:27;;;;;;;;;;;11.20;99.90;;;;;;5054795;28;19912;-76
2022/05/28 05:19:53;;;;;;;;;;;11.20;99.90;;;;;;5048689;28;19920;-74
2022/05/28 05:22:18;;;;;;;;;;;11.30;99.90;;;;;;5048354;28;19917;-79
2022/05/28 05:24:44;;;;;;;;;;;11.30;99.90;;;;;;5048166;28;19923;-75
2022/05/28 05:27:10;;;;;;;;;;;11.30;99.90;;;;;;5056163;28;19920;-76
2022/05/28 05:29:36;;;;;;;;;;;11.30;99.90;;;;;;5055662;28;19951;-75
2022/05/28 05:32:02;;;;;;;;;;;11.40;99.90;;;;;;5054164;28;19976;-76
2022/05/28 05:34:27;;;;;;;;;;;11.50;99.90;;;;;;5055328;28;19983;-74
2022/05/28 05:36:53;;;;;;;;;;;11.50;99.90;;;;;;5055886;28;19909;-76
2022/05/28 05:39:18;;;;;;;;;;;11.40;99.90;;;;;;5055398;28;19916;-78
2022/05/28 05:41:44;;;;;;;;;;;11.50;99.90;;;;;;5054171;28;19913;-75
2022/05/28 05:44:10;;;;;;;;;;;11.60;99.90;;;;;;5032629;28;19920;-77
2022/05/28 05:46:38;;;;;;;;;;;11.80;99.90;;;;;;5053978;28;19952;-76
2022/05/28 05:49:04;;;;;;;;;;;11.80;99.90;;;;;;5055812;28;20319;-76
2022/05/28 05:51:29;;;;;;;;;;;11.90;99.90;;;;;;5055276;28;19956;-75
2022/05/28 05:53:55;;;;;;;;;;;11.80;99.90;;;;;;5053549;28;20011;-75
2022/05/28 05:56:20;;;;;;;;;;;11.80;99.90;;;;;;5054875;28;19913;-75
2022/05/28 05:58:46;;;;;;;;;;;11.90;99.90;;;;;;5070560;28;19962;-77
2022/05/28 06:01:12;;;;;;;;;;;11.80;99.90;;;;;;5054321;28;20280;-77
2022/05/28 06:03:44;;;;;;;;;;;11.80;99.90;;;;;;5053889;28;19919;-76
2022/05/28 06:06:10;;;;;;;;;;;11.90;99.90;;;;;;5051566;28;20007;-75
2022/05/28 06:08:36;;;;;;;;;;;12.10;99.90;;;;;;5050606;28;19909;-75
2022/05/28 06:11:01;;;;;;;;;;;12.20;99.90;;;;;;5054834;28;19919;-76
2022/05/28 06:13:27;;;;;;;;;;;12.50;99.90;;;;;;5054672;28;19954;-76
2022/05/28 06:15:53;;;;;;;;;;;12.30;99.90;;;;;;5053638;28;19941;-76
2022/05/28 06:18:18;;;;;;;;;;;12.30;99.90;;;;;;5053975;28;19959;-75
2022/05/28 06:20:44;;;;;;;;;;;12.30;99.90;;;;;;5052340;28;19917;-74
2022/05/28 06:23:09;;;;;;;;;;;12.40;99.90;;;;;;5051839;28;19940;-80
2022/05/28 06:25:37;;;;;;;;;;;12.50;99.90;;;;;;5055249;28;20216;-76
2022/05/28 06:28:02;;;;;;;;;;;12.60;99.90;;;;;;5050459;28;19909;-75
2022/05/28 06:30:28;;;;;;;;;;;12.50;99.90;;;;;;5043402;28;19966;-76
2022/05/28 06:32:54;;;;;;;;;;;12.40;99.90;;;;;;5048979;28;19916;-75
2022/05/28 06:35:19;;;;;;;;;;;12.20;99.90;;;;;;5040335;28;19921;-74
2022/05/28 06:37:47;;;;;;;;;;;11.90;99.90;;;;;;5046756;28;19921;-75
2022/05/28 06:40:13;;;;;;;;;;;11.70;99.90;;;;;;5040848;28;19919;-75
2022/05/28 06:42:42;;;;;;;;;;;11.60;99.90;;;;;;5042973;28;20204;-74
2022/05/28 06:45:13;;;;;;;;;;;11.50;99.90;;;;;;5047849;28;19912;-75
2022/05/28 06:47:40;;;;;;;;;;;11.40;99.90;;;;;;5045505;28;20316;-73
2022/05/28 06:52:50;;;;;;;;;;;11.20;99.90;;;;;;5043001;28;19996;-74
2022/05/28 06:55:16;;;;;;;;;;;11.60;99.90;;;;;;5035521;28;20011;-74
2022/05/28 06:57:42;;;;;;;;;;;11.90;99.90;;;;;;5034813;28;19921;-75
2022/05/28 07:00:08;;;;;;;;;;;12.10;99.90;;;;;;5041785;28;19975;-75
2022/05/28 07:02:33;;;;;;;;;;;12.20;99.90;;;;;;5036679;28;19917;-74
2022/05/28 07:04:59;;;;;;;;;;;12.30;99.90;;;;;;5043366;28;19986;-75
2022/05/28 07:07:25;;;;;;;;;;;12.40;99.90;;;;;;5049939;28;20304;-76
2022/05/28 07:09:50;;;;;;;;;;;12.50;99.90;;;;;;5047096;28;20008;-75
2022/05/28 07:12:16;;;;;;;;;;;12.40;99.90;;;;;;5047820;28;19920;-75
2022/05/28 07:14:42;;;;;;;;;;;12.40;99.90;;;;;;5053284;28;20300;-75
2022/05/28 07:17:07;;;;;;;;;;;12.60;99.90;;;;;;5047390;28;19959;-76
2022/05/28 07:19:33;;;;;;;;;;;12.50;99.90;;;;;;5047698;28;19923;-75
2022/05/28 07:21:59;;;;;;;;;;;12.60;99.90;;;;;;5045165;28;19921;-77
2022/05/28 07:24:25;;;;;;;;;;;12.80;99.90;;;;;;5046562;28;20348;-80
2022/05/28 07:26:51;;;;;;;;;;;12.80;99.90;;;;;;5050377;28;19921;-76
2022/05/28 07:29:17;;;;;;;;;;;13.10;99.90;;;;;;5046366;28;20310;-76
2022/05/28 07:31:43;;;;;;;;;;;13.10;99.90;;;;;;5045184;28;19920;-77
2022/05/28 07:34:08;;;;;;;;;;;13.00;99.90;;;;;;5048329;28;20440;-77
2022/05/28 07:36:35;;;;;;;;;;;13.20;99.90;;;;;;5049889;28;19917;-76
2022/05/28 07:39:02;;;;;;;;;;;12.90;99.90;;;;;;5046541;28;19913;-76
2022/05/28 07:41:27;;;;;;;;;;;12.70;99.90;;;;;;5044789;28;20043;-75
2022/05/28 07:43:55;;;;;;;;;;;12.70;99.90;;;;;;5051889;28;20023;-75
2022/05/28 07:46:22;;;;;;;;;;;13.10;99.90;;;;;;5047103;28;19928;-77
2022/05/28 07:48:48;;;;;;;;;;;13.40;99.90;;;;;;5063088;28;19936;-75
2022/05/28 07:51:14;;;;;;;;;;;13.40;99.90;;;;;;5048385;28;19921;-74
2022/05/28 07:53:40;;;;;;;;;;;13.20;99.90;;;;;;5049853;28;20310;-75
2022/05/28 07:56:06;;;;;;;;;;;12.90;99.90;;;;;;5046753;28;20204;-75
2022/05/28 07:58:32;;;;;;;;;;;13.10;99.90;;;;;;5048737;28;19913;-76
2022/05/28 08:00:58;;;;;;;;;;;13.30;99.90;;;;;;5050312;28;19913;-76
2022/05/28 08:03:24;;;;;;;;;;;13.40;99.90;;;;;;5047911;28;20304;-77
2022/05/28 08:05:50;;;;;;;;;;;13.80;99.90;;;;;;5047658;28;20003;-75
2022/05/28 08:08:17;;;;;;;;;;;13.70;99.90;;;;;;5045691;28;19913;-75
2022/05/28 08:10:43;;;;;;;;;;;13.50;99.90;;;;;;5050448;28;19913;-76
2022/05/28 08:13:10;;;;;;;;;;;13.50;99.90;;;;;;5047943;28;19913;-76
2022/05/28 08:15:37;;;;;;;;;;;13.80;99.90;;;;;;5046336;28;19913;-77
2022/05/28 08:18:03;;;;;;;;;;;14.00;99.90;;;;;;5047847;28;19920;-75
2022/05/28 08:23:13;;;;;;;;;;;14.20;99.90;;;;;;5045250;28;19920;-74
2022/05/28 08:25:39;;;;;;;;;;;14.40;99.90;;;;;;5044804;28;19917;-74
2022/05/28 08:28:09;;;;;;;;;;;14.80;99.90;;;;;;5046345;28;20053;-75
2022/05/28 08:30:35;;;;;;;;;;;14.40;99.90;;;;;;5049447;28;19921;-76
2022/05/28 08:33:01;;;;;;;;;;;13.50;99.90;;;;;;5047932;28;19924;-75
2022/05/28 08:35:27;;;;;;;;;;;13.40;99.90;;;;;;5048338;28;19920;-74
2022/05/28 08:37:53;;;;;;;;;;;13.70;99.90;;;;;;5046222;28;19921;-76
2022/05/28 08:40:18;;;;;;;;;;;14.30;99.90;;;;;;5046761;28;19913;-77
2022/05/28 08:42:44;;;;;;;;;;;14.70;99.90;;;;;;5045981;28;19916;-74
2022/05/28 08:45:12;;;;;;;;;;;14.80;99.90;;;;;;5048484;28;19928;-76
2022/05/28 08:47:40;;;;;;;;;;;14.90;99.90;;;;;;5047667;28;19913;-74
2022/05/28 08:50:07;;;;;;;;;;;14.90;99.90;;;;;;5048448;28;19928;-75
2022/05/28 08:52:48;;;;;;;;;;;14.30;99.90;;;;;;5048422;28;19913;-75
2022/05/28 08:55:22;;;;;;;;;;;14.10;99.90;;;;;;5047258;28;19945;-76
2022/05/28 08:58:00;;;;;;;;;;;14.10;99.90;;;;;;5048696;28;19913;-76
2022/05/28 09:00:41;;;;;;;;;;;14.50;99.90;;;;;;5046563;28;19920;-76
2022/05/28 09:03:12;;;;;;;;;;;14.80;99.90;;;;;;5044998;28;19920;-77
2022/05/28 09:05:48;;;;;;;;;;;14.50;99.90;;;;;;5049496;28;19923;-76
2022/05/28 09:08:16;;;;;;;;;;;13.90;99.90;;;;;;5070174;28;20209;-76
2022/05/28 09:10:44;;;;;;;;;;;13.70;99.90;;;;;;5053577;28;19917;-75
2022/05/28 09:13:19;;;;;;;;;;;13.70;99.90;;;;;;5054670;28;19913;-75
2022/05/28 09:15:45;;;;;;;;;;;13.40;99.90;;;;;;5053710;28;19917;-75
2022/05/28 09:18:12;;;;;;;;;;;13.60;99.90;;;;;;5053917;28;19921;-75
2022/05/28 09:20:39;;;;;;;;;;;14.30;99.90;;;;;;5052550;28;20340;-76
2022/05/28 09:23:05;;;;;;;;;;;14.80;99.90;;;;;;5055778;28;19924;-75
2022/05/28 09:25:32;;;;;;;;;;;14.60;99.90;;;;;;5055414;28;19940;-75
2022/05/28 09:28:18;;;;;;;;;;;13.70;99.90;;;;;;5051896;28;19982;-75
2022/05/28 09:30:53;;;;;;;;;;;14.00;99.90;;;;;;5043644;28;20330;-76
2022/05/28 09:33:28;;;;;;;;;;;14.70;99.90;;;;;;5048824;28;19928;-77
2022/05/28 09:36:09;;;;;;;;;;;14.70;99.90;;;;;;5041673;28;19952;-76
2022/05/28 09:38:41;;;;;;;;;;;14.20;99.90;;;;;;5040738;28;19917;-76
2022/05/28 09:41:31;;;;;;;;;;;14.40;99.90;;;;;;5043064;28;19941;-75
2022/05/28 09:44:16;;;;;;;;;;;14.40;99.90;;;;;;5044478;28;19912;-75
2022/05/28 09:46:43;;;;;;;;;;;14.60;99.90;;;;;;5043554;28;19928;-75
2022/05/28 09:49:10;;;;;;;;;;;14.90;99.90;;;;;;5045769;28;19921;-75
2022/05/28 09:51:36;;;;;;;;;;;15.20;99.90;;;;;;5049291;28;19996;-74
2022/05/28 09:54:20;;;;;;;;;;;15.30;99.90;;;;;;5044894;28;19964;-77
2022/05/28 09:57:00;;;;;;;;;;;15.50;99.90;;;;;;5060249;28;19921;-76
2022/05/28 09:59:29;;;;;;;;;;;15.20;99.90;;;;;;5047834;28;19912;-76
2022/05/28 10:01:57;;;;;;;;;;;15.40;99.90;;;;;;5049369;28;19917;-75
2022/05/28 10:04:29;;;;;;;;;;;15.10;97.70;;;;;;5052010;28;19913;-77
2022/05/28 10:06:56;;;;;;;;;;;15.60;99.90;;;;;;5046396;28;20414;-75
2022/05/28 10:09:26;;;;;;;;;;;15.50;99.90;;;;;;5048703;28;19917;-75
2022/05/28 10:11:54;;;;;;;;;;;15.30;99.90;;;;;;5050662;28;20007;-74
2022/05/28 10:14:20;;;;;;;;;;;14.70;99.90;;;;;;5053395;28;19913;-74
2022/05/28 10:16:49;;;;;;;;;;;14.40;99.90;;;;;;5066284;28;19916;-75
2022/05/28 10:19:24;;;;;;;;;;;14.80;99.90;;;;;;5051816;28;20539;-75
2022/05/28 10:21:52;;;;;;;;;;;15.30;99.90;;;;;;5050073;28;20320;-75
2022/05/28 10:24:18;;;;;;;;;;;15.00;99.90;;;;;;5051804;28;19999;-76
2022/05/28 10:26:45;;;;;;;;;;;15.40;99.90;;;;;;5045400;28;19920;-74
2022/05/28 10:29:28;;;;;;;;;;;15.60;99.90;;;;;;5049203;28;20059;-75
2022/05/28 10:31:55;;;;;;;;;;;14.90;99.90;;;;;;5041675;28;19917;-76
2022/05/28 10:34:31;;;;;;;;;;;15.20;99.90;;;;;;5047912;28;20000;-75
2022/05/28 10:37:09;;;;;;;;;;;15.40;99.90;;;;;;5043582;28;19924;-75
2022/05/28 10:39:37;;;;;;;;;;;15.00;99.90;;;;;;5045716;28;20296;-75
2022/05/28 10:42:03;;;;;;;;;;;14.40;99.90;;;;;;5039499;28;19917;-76
2022/05/28 10:44:29;;;;;;;;;;;14.70;99.90;;;;;;5040808;28;19921;-75
2022/05/28 10:47:13;;;;;;;;;;;15.20;99.90;;;;;;5021168;28;19925;-75
2022/05/28 10:49:44;;;;;;;;;;;15.60;99.90;;;;;;5039427;28;20004;-76
2022/05/28 10:52:10;;;;;;;;;;;15.60;99.10;;;;;;5044652;28;19921;-75
2022/05/28 10:54:58;;;;;;;;;;;15.50;99.60;;;;;;5042382;28;19928;-75
2022/05/28 10:57:50;;;;;;;;;;;15.90;98.70;;;;;;5030351;28;20227;-77
2022/05/28 11:00:19;;;;;;;;;;;15.70;97.80;;;;;;5022885;28;19974;-76
2022/05/28 11:02:51;;;;;;;;;;;16.30;97.20;;;;;;5046824;28;20036;-76
2022/05/28 11:05:19;;;;;;;;;;;15.90;99.30;;;;;;5044589;28;19916;-75
2022/05/28 11:08:11;;;;;;;;;;;15.80;99.90;;;;;;5046750;28;19963;-75
2022/05/28 11:10:49;;;;;;;;;;;15.90;99.90;;;;;;5049954;28;20007;-77
2022/05/28 11:13:22;;;;;;;;;;;16.10;99.90;;;;;;5046813;28;19935;-76
2022/05/28 11:16:06;;;;;;;;;;;15.40;99.90;;;;;;5047602;28;19935;-76
2022/05/28 11:18:43;;;;;;;;;;;15.10;99.90;;;;;;5044886;28;19925;-75
2022/05/28 11:21:25;;;;;;;;;;;15.20;99.90;;;;;;5043306;28;19940;-76
2022/05/28 11:23:57;;;;;;;;;;;15.40;99.90;;;;;;5040792;28;19920;-76
2022/05/28 11:26:30;;;;;;;;;;;15.60;99.90;;;;;;5040812;28;19928;-78
2022/05/28 11:28:59;;;;;;;;;;;15.50;99.90;;;;;;5038677;28;19921;-77
2022/05/28 11:31:31;;;;;;;;;;;15.70;99.90;;;;;;5041033;28;19924;-75
2022/05/28 11:34:00;;;;;;;;;;;15.90;99.90;;;;;;5043405;28;19917;-75
2022/05/28 11:36:28;;;;;;;;;;;16.10;99.90;;;;;;5040187;28;19917;-75
2022/05/28 11:38:53;;;;;;;;;;;15.50;99.90;;;;;;5040348;28;19922;-77
2022/05/28 11:41:22;;;;;;;;;;;15.40;99.90;;;;;;5040270;28;20260;-76
2022/05/28 11:44:06;;;;;;;;;;;15.30;99.90;;;;;;5043350;28;19920;-75
2022/05/28 11:46:37;;;;;;;;;;;15.40;99.90;;;;;;5047467;28;19920;-76
2022/05/28 11:52:16;;;;;;;;;;;15.80;99.90;;;;;;5044583;28;19924;-75
2022/05/28 11:54:46;;;;;;;;;;;15.20;99.90;;;;;;5049877;28;19928;-76
2022/05/28 11:57:21;;;;;;;;;;;15.50;99.90;;;;;;5067668;28;20031;-76
2022/05/28 11:59:46;;;;;;;;;;;15.70;99.90;;;;;;5050724;28;19916;-77
2022/05/28 12:02:14;;;;;;;;;;;15.60;99.00;;;;;;5048708;28;19919;-78
2022/05/28 12:04:41;;;;;;;;;;;15.70;99.90;;;;;;5046512;28;19912;-77
2022/05/28 12:07:09;;;;;;;;;;;15.60;99.90;;;;;;5048014;28;19924;-80
2022/05/28 12:09:40;;;;;;;;;;;15.20;99.90;;;;;;5048085;28;19922;-77
2022/05/28 12:12:17;;;;;;;;;;;15.60;99.90;;;;;;5047951;28;20286;-78
2022/05/28 12:14:47;;;;;;;;;;;15.40;99.00;;;;;;5049048;28;19919;-76
2022/05/28 12:17:18;;;;;;;;;;;14.80;99.00;;;;;;5048739;28;19920;-79
2022/05/28 12:19:44;;;;;;;;;;;14.30;98.90;;;;;;5048224;28;19959;-77
2022/05/28 12:22:24;;;;;;;;;;;14.70;99.70;;;;;;5048764;28;20371;-76
2022/05/28 12:25:09;;;;;;;;;;;15.30;99.90;;;;;;5048037;28;19917;-78
2022/05/28 12:27:36;;;;;;;;;;;14.70;99.90;;;;;;5050273;28;20023;-76
2022/05/28 12:30:05;;;;;;;;;;;14.30;99.90;;;;;;5051714;28;20099;-79
2022/05/28 12:32:44;;;;;;;;;;;14.20;99.90;;;;;;5056829;28;19944;-77
2022/05/28 12:35:16;;;;;;;;;;;14.70;99.90;;;;;;5053239;28;19916;-78
2022/05/28 12:37:56;;;;;;;;;;;15.40;99.90;;;;;;5064688;28;20333;-76
2022/05/28 12:40:22;;;;;;;;;;;15.80;99.70;;;;;;5052545;28;20308;-76
2022/05/28 12:42:47;;;;;;;;;;;15.80;99.90;;;;;;5053807;28;19920;-76
2022/05/28 12:45:37;;;;;;;;;;;15.50;99.90;;;;;;5057347;28;19924;-77
2022/05/28 12:48:04;;;;;;;;;;;15.60;99.90;;;;;;5064270;28;20199;-75
2022/05/28 12:50:51;;;;;;;;;;;16.00;99.90;;;;;;5051797;28;19921;-75
2022/05/28 12:53:20;;;;;;;;;;;15.90;99.90;;;;;;5052301;28;19917;-76
2022/05/28 12:55:46;;;;;;;;;;;16.00;99.90;;;;;;5047437;28;20342;-75
2022/05/28 12:58:25;;;;;;;;;;;16.00;99.90;;;;;;5047152;28;19917;-75
2022/05/28 13:00:54;;;;;;;;;;;15.70;99.90;;;;;;5042651;28;20628;-78
2022/05/28 13:03:22;;;;;;;;;;;15.90;99.90;;;;;;5040530;28;19960;-75
2022/05/28 13:05:53;;;;;;;;;;;15.80;99.90;;;;;;5044178;28;19925;-77
2022/05/28 13:08:22;;;;;;;;;;;15.50;99.90;;;;;;5041200;28;19951;-77
2022/05/28 13:10:51;;;;;;;;;;;15.60;99.90;;;;;;5059851;28;19963;-78
2022/05/28 13:13:42;;;;;;;;;;;15.60;99.90;;;;;;5049049;28;19923;-77
2022/05/28 13:16:26;;;;;;;;;;;15.80;99.90;;;;;;5045727;28;19917;-75
2022/05/28 13:19:10;;;;;;;;;;;15.60;99.90;;;;;;5053989;28;20015;-76
2022/05/28 13:21:54;;;;;;;;;;;14.90;99.90;;;;;;5042550;28;19916;-77
2022/05/28 13:24:32;;;;;;;;;;;15.30;99.90;;;;;;5042718;28;19965;-75
2022/05/28 13:26:57;;;;;;;;;;;15.20;99.90;;;;;;5053573;28;19952;-76
2022/05/28 13:29:35;;;;;;;;;;;15.20;99.90;;;;;;5054232;28;20304;-76
2022/05/28 13:32:10;;;;;;;;;;;15.20;99.90;;;;;;5044308;28;19921;-76
2022/05/28 13:34:36;;;;;;;;;;;15.10;99.90;;;;;;5049030;28;20338;-78
2022/05/28 13:37:01;;;;;;;;;;;15.20;99.90;;;;;;5051375;28;19944;-77
2022/05/28 13:39:28;;;;;;;;;;;15.30;99.90;;;;;;5032789;28;20296;-75
2022/05/28 13:41:55;;;;;;;;;;;15.20;99.90;;;;;;5046885;28;19913;-76
2022/05/28 13:44:30;;;;;;;;;;;15.20;99.90;;;;;;5041699;28;19920;-77
2022/05/28 13:46:59;;;;;;;;;;;15.20;99.90;;;;;;5045638;28;19921;-75
2022/05/28 13:49:26;;;;;;;;;;;15.20;99.90;;;;;;5044648;28;20232;-76
2022/05/28 13:52:03;;;;;;;;;;;15.20;99.90;;;;;;5047560;28;20360;-76
2022/05/28 13:54:29;;;;;;;;;;;15.00;99.90;;;;;;5030849;28;19947;-75
2022/05/28 13:56:56;;;;;;;;;;;14.90;99.90;;;;;;5046665;28;19916;-75
2022/05/28 13:59:29;;;;;;;;;;;15.10;99.90;;;;;;5046869;28;20290;-76
2022/05/28 14:01:55;;;;;;;;;;;15.00;99.90;;;;;;5044454;28;20307;-77
2022/05/28 14:04:23;;;;;;;;;;;15.20;99.90;;;;;;5047372;28;19920;-76
2022/05/28 14:07:02;;;;;;;;;;;15.20;99.90;;;;;;5044414;28;20007;-75
2022/05/28 14:09:31;;;;;;;;;;;14.90;99.90;;;;;;5048534;28;19927;-76
2022/05/28 14:11:58;;;;;;;;;;;14.20;99.90;;;;;;5048181;28;20304;-75
2022/05/28 14:14:26;;;;;;;;;;;13.90;99.90;;;;;;5045574;28;19967;-75
2022/05/28 14:16:56;;;;;;;;;;;13.70;99.90;;;;;;5046206;28;19923;-78
2022/05/28 14:19:42;;;;;;;;;;;14.40;99.90;;;;;;5048128;28;19912;-75
2022/05/28 14:22:18;;;;;;;;;;;14.90;99.90;;;;;;5040366;28;20331;-76
2022/05/28 14:24:46;;;;;;;;;;;14.40;99.90;;;;;;5045785;28;20007;-75
2022/05/28 14:27:19;;;;;;;;;;;13.90;99.90;;;;;;5046419;28;19970;-76
2022/05/28 14:29:46;;;;;;;;;;;13.70;99.90;;;;;;5047431;28;19917;-77
2022/05/28 14:32:13;;;;;;;;;;;13.60;99.90;;;;;;5046732;28;19916;-75
2022/05/28 14:34:40;;;;;;;;;;;14.10;99.90;;;;;;5044042;28;20017;-76